Dilley, TX (78017)

7:50 AM CST on December 19, 2014 (GMT -0600)
Rocky Ridge Ranch | Change Station
CLOSE
Current Station
Personal Weather Station
Location: Pearsall, TX
Elevation: 571 ft
Nearby Weather Stations

Elev 571 ft 28.84 °N, 99.15 °W | Updated 15 seconds ago

Overcast
Overcast
53.6 °F
Feels Like 53.6 °F
N
3.3
Wind Variable Wind from NE
Gusts 12.0 mph

Today
High -- | Low -- °F
--% Chance of Precip.
Yesterday
High -- | Low -- °F
Precip. -- in
7:24 AM 5:43 PM
Waning Crescent, 8% visible
Pressure 30.03 in
Visibility 7.0 miles
Clouds Mostly Cloudy 800 ft
Overcast 1200 ft
Dew Point 53 °F
Humidity 97%
Rainfall 0.02 in
Snow Depth Not available.
UV 0 out of 12
Pollen 4.60 out of 12
Air Quality Not available.
Flu Activity Not available.
METAR KCOT 191253Z AUTO 03009KT 7SM BKN008 OVC012 13/12 A3004 RMK AO2 RAE01 CIG 004V010 SLP168 P0000 T01330117

More Conditions Fewer Conditions

Pressure 30.03 in
Visibility 7.0 miles
Clouds Mostly Cloudy 800 ft
Overcast 1200 ft
Dew Point 53 °F
Humidity 97%
Rainfall 0.02 in
Snow Depth Not available.
UV 0 out of 12
Pollen 4.60 out of 12
Air Quality Not available.
Flu Activity Not available.
METAR KCOT 191253Z AUTO 03009KT 7SM BKN008 OVC012 13/12 A3004 RMK AO2 RAE01 CIG 004V010 SLP168 P0000 T01330117

More Conditions Fewer Conditions

10-Day Weather Forecast

Almanac

Astronomy

Dec. 19, 2014 Rise Set
Actual Time
Civil Twilight
Nautical Twilight
Astronomical Twilight
Moon
Length of Visible Light
Length of Day
Tomorrow will be .
, % of the Moon is Illuminated

Today's Extremes

State Highs State Lows

Community

WunderPhotos

Upload Photos

1,778,987 photos uploaded!

WunderBlogs® & News

Nearby

Air Quality

  Air Quality AQ Index Pollutant
Not available.

Snow Depth

Station Depth Elevation

Earthquake Activity

City Distance Mag. Time & Date
Minimum magnitude displayed is 2.5.

Coastal Water Temperatures

Place Temperature

Nearby Weather Stations